Time;durP1;ratioP1;P1;durP2;ratioP2;P2;SDS_P1;SDS_P2;PMS_P1;PMS_P2;Temp;Humidity;BMP_temperature;BMP_pressure;BME280_temperature;BME280_humidity;BME280_pressure;Samples;Min_cycle;Max_cycle;Signal;HPM_P1;HPM_P2
2023/03/03 00:01:25;;;;;;;177.32;55.95;;;6.80;99.90;;;;;;4938574;29;20028;-73
2023/03/03 00:03:52;;;;;;;145.05;51.88;;;6.70;99.90;;;;;;4938030;29;20032;-75
2023/03/03 00:06:19;;;;;;;129.60;49.80;;;6.70;99.90;;;;;;4938390;29;20379;-73
2023/03/03 00:08:44;;;;;;;195.88;60.10;;;6.70;99.90;;;;;;4925872;29;20066;-73
2023/03/03 00:11:11;;;;;;;218.10;62.00;;;6.70;99.90;;;;;;4938176;29;20486;-73
2023/03/03 00:13:50;;;;;;;167.07;47.78;;;6.60;99.90;;;;;;4938260;29;20035;-73
2023/03/03 00:16:22;;;;;;;151.55;50.75;;;6.60;99.90;;;;;;4938067;29;20034;-74
2023/03/03 00:18:49;;;;;;;142.60;45.75;;;6.50;99.90;;;;;;4938186;29;20485;-74
2023/03/03 00:21:41;;;;;;;88.60;40.47;;;6.50;99.90;;;;;;4938047;29;20048;-73
2023/03/03 00:24:13;;;;;;;114.43;47.27;;;6.50;99.90;;;;;;4938092;29;20103;-73
2023/03/03 00:26:42;;;;;;;190.27;52.22;;;6.50;99.90;;;;;;4938152;29;20023;-73
2023/03/03 00:29:30;;;;;;;103.72;41.22;;;6.40;99.90;;;;;;4937801;29;20453;-73
2023/03/03 00:32:14;;;;;;;123.07;43.67;;;6.40;99.90;;;;;;4938081;29;20486;-73
2023/03/03 00:34:42;;;;;;;173.45;48.85;;;6.40;99.90;;;;;;4936011;29;20370;-76
2023/03/03 00:37:21;;;;;;;115.72;44.15;;;6.40;99.90;;;;;;4920820;29;20378;-74
2023/03/03 00:39:48;;;;;;;178.05;50.47;;;6.40;99.90;;;;;;4936550;29;20039;-75
2023/03/03 00:42:15;;;;;;;148.80;49.40;;;6.40;99.90;;;;;;4936030;29;20032;-75
2023/03/03 00:44:47;;;;;;;149.40;53.05;;;6.40;99.90;;;;;;4936291;29;20028;-75
2023/03/03 00:47:27;;;;;;;109.88;44.90;;;6.50;99.90;;;;;;4937383;29;20091;-74
2023/03/03 00:50:13;;;;;;;179.80;54.95;;;6.50;99.90;;;;;;4937614;29;20048;-74
2023/03/03 00:52:45;;;;;;;172.48;53.00;;;6.50;99.90;;;;;;4937674;29;20035;-73
2023/03/03 00:55:11;;;;;;;117.80;41.20;;;6.50;99.90;;;;;;4937419;29;20039;-74
2023/03/03 00:57:37;;;;;;;140.23;45.33;;;6.50;99.90;;;;;;4937580;29;20481;-74
2023/03/03 01:00:07;;;;;;;166.05;46.38;;;6.50;99.90;;;;;;4920233;29;20032;-74
2023/03/03 01:02:33;;;;;;;201.75;48.97;;;6.40;99.90;;;;;;4920575;29;20020;-73
2023/03/03 01:04:59;;;;;;;129.85;44.53;;;6.40;99.90;;;;;;4920226;29;20397;-74
2023/03/03 01:07:25;;;;;;;92.28;38.25;;;6.50;99.90;;;;;;4937025;29;20056;-73
2023/03/03 01:09:51;;;;;;;148.65;45.85;;;6.50;99.90;;;;;;4935925;29;20038;-73
2023/03/03 01:12:17;;;;;;;97.72;42.83;;;6.60;99.90;;;;;;4937131;29;20058;-72
2023/03/03 01:14:44;;;;;;;107.20;38.55;;;6.60;99.90;;;;;;4937092;29;20074;-72
2023/03/03 01:17:09;;;;;;;128.30;42.28;;;6.60;99.90;;;;;;4937005;29;20031;-73
2023/03/03 01:19:35;;;;;;;94.20;36.60;;;6.60;99.90;;;;;;4935772;29;20048;-73
2023/03/03 01:22:01;;;;;;;186.35;47.25;;;6.60;99.90;;;;;;4935691;29;20470;-73
2023/03/03 01:24:27;;;;;;;186.68;47.05;;;6.60;99.90;;;;;;4935761;29;20043;-73
2023/03/03 01:26:53;;;;;;;148.60;43.63;;;6.60;99.90;;;;;;4936886;29;20035;-74
2023/03/03 01:29:19;;;;;;;127.90;40.55;;;6.70;99.90;;;;;;4919695;29;20455;-73
2023/03/03 01:31:44;;;;;;;89.22;32.88;;;6.70;99.90;;;;;;4935613;29;20031;-73
2023/03/03 01:34:10;;;;;;;149.05;43.33;;;6.70;99.90;;;;;;4951427;28;20114;-72
2023/03/03 01:36:36;;;;;;;99.18;36.80;;;6.70;99.90;;;;;;4936982;29;20031;-75
2023/03/03 01:39:03;;;;;;;135.43;42.28;;;6.70;99.90;;;;;;4936609;29;20035;-73
2023/03/03 01:41:32;;;;;;;160.93;42.53;;;6.60;99.90;;;;;;4936673;29;20024;-73
2023/03/03 01:43:59;;;;;;;155.90;46.25;;;6.60;99.90;;;;;;4936708;29;20354;-74
2023/03/03 01:46:43;;;;;;;212.88;49.70;;;6.50;99.90;;;;;;4936476;29;20031;-73
2023/03/03 01:49:25;;;;;;;166.70;46.42;;;6.50;99.90;;;;;;4936250;29;20055;-72
2023/03/03 01:51:56;;;;;;;129.47;42.37;;;6.50;99.90;;;;;;4936443;29;20426;-73
2023/03/03 01:54:40;;;;;;;86.88;33.10;;;6.50;99.90;;;;;;4919430;29;20545;-74
2023/03/03 01:57:15;;;;;;;147.73;40.78;;;6.50;99.90;;;;;;4919289;29;20032;-72
2023/03/03 01:59:45;;;;;;;104.85;38.85;;;6.60;99.90;;;;;;4918519;29;20075;-74
2023/03/03 02:02:11;;;;;;;85.85;30.00;;;6.50;99.90;;;;;;4936265;29;20024;-73
2023/03/03 02:04:38;;;;;;;88.45;36.50;;;6.60;99.90;;;;;;4919037;29;20055;-72
2023/03/03 02:07:10;;;;;;;100.05;35.92;;;6.60;99.90;;;;;;4934798;29;20048;-74
2023/03/03 02:09:55;;;;;;;111.07;38.13;;;6.60;99.90;;;;;;4918790;29;20118;-74
2023/03/03 02:12:30;;;;;;;111.68;35.17;;;6.60;99.90;;;;;;4936265;29;20479;-74
2023/03/03 02:14:56;;;;;;;81.05;34.47;;;6.60;99.90;;;;;;4936174;29;20039;-74
2023/03/03 02:17:22;;;;;;;89.70;35.00;;;6.50;99.90;;;;;;4918796;29;20111;-74
2023/03/03 02:20:19;;;;;;;99.97;35.33;;;6.60;99.90;;;;;;4935779;29;20122;-73
2023/03/03 02:23:02;;;;;;;67.15;32.80;;;6.60;99.90;;;;;;4932200;29;20095;-74
2023/03/03 02:25:42;;;;;;;104.60;36.83;;;6.50;99.90;;;;;;4918940;29;20027;-74
2023/03/03 02:28:08;;;;;;;67.13;31.13;;;6.50;99.90;;;;;;4935746;29;20031;-74
2023/03/03 02:30:37;;;;;;;79.90;33.60;;;6.50;99.90;;;;;;4918709;29;20027;-74
2023/03/03 02:33:04;;;;;;;87.93;33.70;;;6.50;99.90;;;;;;4918133;29;20027;-73
2023/03/03 02:35:36;;;;;;;61.80;29.67;;;6.40;99.90;;;;;;4928575;29;20035;-73
2023/03/03 02:38:17;;;;;;;72.28;31.58;;;6.40;99.90;;;;;;4918699;29;20047;-73
2023/03/03 02:41:09;;;;;;;64.93;29.25;;;6.30;99.90;;;;;;4934291;29;20044;-74
2023/03/03 02:44:11;;;;;;;71.07;32.15;;;6.30;99.90;;;;;;4918858;29;20050;-73
2023/03/03 02:46:40;;;;;;;62.22;28.90;;;6.20;99.90;;;;;;4936841;29;20036;-74
2023/03/03 02:49:08;;;;;;;92.57;35.42;;;6.30;99.90;;;;;;4917963;29;20470;-74
2023/03/03 02:51:34;;;;;;;109.22;37.92;;;6.30;99.90;;;;;;4934072;29;20059;-75
2023/03/03 02:54:01;;;;;;;84.85;33.60;;;6.20;99.90;;;;;;4918125;29;20050;-75
2023/03/03 02:56:29;;;;;;;66.05;30.48;;;6.30;99.90;;;;;;4922836;29;20075;-76
2023/03/03 02:58:55;;;;;;;64.75;31.27;;;6.30;99.90;;;;;;4918410;29;20035;-74
2023/03/03 03:01:21;;;;;;;94.22;36.45;;;6.30;99.90;;;;;;4934195;29;20110;-74
2023/03/03 03:03:48;;;;;;;82.43;32.28;;;6.30;99.90;;;;;;4948697;29;20034;-74
2023/03/03 03:06:18;;;;;;;91.90;33.65;;;6.30;99.90;;;;;;4934003;28;20084;-75
2023/03/03 03:08:45;;;;;;;106.97;37.83;;;6.30;99.90;;;;;;4918381;29;20032;-75
2023/03/03 03:11:11;;;;;;;88.88;35.28;;;6.30;99.90;;;;;;4933837;29;20402;-74
2023/03/03 03:13:38;;;;;;;59.08;29.08;;;6.30;99.90;;;;;;4936205;29;20027;-76
2023/03/03 03:16:04;;;;;;;81.22;33.65;;;6.30;99.90;;;;;;4918249;29;20442;-75
2023/03/03 03:18:30;;;;;;;63.75;28.67;;;6.20;99.90;;;;;;4949190;28;20048;-74
2023/03/03 03:21:05;;;;;;;58.95;30.02;;;6.20;99.90;;;;;;4919641;29;20036;-73
2023/03/03 03:23:31;;;;;;;61.50;30.38;;;6.30;99.90;;;;;;4913951;29;20040;-74
2023/03/03 03:25:58;;;;;;;62.60;28.42;;;6.30;99.90;;;;;;4934266;29;20031;-73
2023/03/03 03:28:27;;;;;;;70.75;31.33;;;6.30;99.90;;;;;;4934172;29;20028;-74
2023/03/03 03:30:53;;;;;;;67.28;31.83;;;6.30;99.90;;;;;;4933930;29;20024;-74
2023/03/03 03:33:21;;;;;;;73.82;29.98;;;6.30;99.90;;;;;;4935540;29;20085;-74
2023/03/03 03:35:47;;;;;;;89.28;32.15;;;6.30;99.90;;;;;;4921892;29;20508;-73
2023/03/03 03:38:16;;;;;;;85.38;32.40;;;6.30;99.90;;;;;;4921840;29;20040;-74
2023/03/03 03:40:42;;;;;;;58.83;29.48;;;6.30;99.90;;;;;;4937577;29;20027;-76
2023/03/03 03:43:08;;;;;;;60.15;28.27;;;6.30;99.90;;;;;;4938983;29;20450;-76
2023/03/03 03:45:34;;;;;;;57.10;27.50;;;6.30;99.90;;;;;;4937273;29;20027;-74
2023/03/03 03:48:02;;;;;;;73.47;31.73;;;6.30;99.90;;;;;;4937662;29;20036;-75
2023/03/03 03:50:29;;;;;;;55.30;25.77;;;6.20;99.90;;;;;;4921714;29;20525;-74
2023/03/03 03:52:55;;;;;;;66.00;29.77;;;6.20;99.90;;;;;;4937422;29;20034;-73
2023/03/03 03:55:21;;;;;;;67.88;29.98;;;6.20;99.90;;;;;;4937330;29;20031;-74
2023/03/03 03:57:47;;;;;;;81.10;34.45;;;6.20;99.90;;;;;;4921379;29;20549;-74
2023/03/03 04:00:14;;;;;;;70.05;28.67;;;6.20;99.90;;;;;;4937001;29;20095;-74
2023/03/03 04:02:43;;;;;;;51.78;26.70;;;6.20;99.90;;;;;;4937474;29;20015;-77
2023/03/03 04:05:12;;;;;;;63.88;29.08;;;6.20;99.90;;;;;;4921447;29;20032;-76
2023/03/03 04:07:39;;;;;;;88.65;31.88;;;6.10;99.90;;;;;;4937104;29;20451;-76
2023/03/03 04:10:07;;;;;;;71.97;30.95;;;6.10;99.90;;;;;;4921393;29;20078;-77
2023/03/03 04:12:37;;;;;;;59.50;26.70;;;6.00;99.90;;;;;;4921427;29;20115;-74
2023/03/03 04:15:06;;;;;;;53.28;26.70;;;6.00;99.90;;;;;;4921290;29;20037;-74
2023/03/03 04:17:32;;;;;;;67.07;27.95;;;6.10;99.90;;;;;;4920913;29;20027;-74
2023/03/03 04:19:58;;;;;;;66.65;28.63;;;6.00;99.90;;;;;;4938109;29;20039;-72
2023/03/03 04:22:24;;;;;;;60.72;27.50;;;6.00;99.90;;;;;;4936411;29;20549;-75
2023/03/03 04:24:49;;;;;;;60.47;27.50;;;6.00;99.90;;;;;;4936824;29;20078;-75
2023/03/03 04:27:16;;;;;;;56.60;26.60;;;6.00;99.90;;;;;;4938381;29;20024;-75
2023/03/03 04:29:43;;;;;;;62.75;28.20;;;6.10;99.90;;;;;;4920832;29;20178;-74
2023/03/03 04:32:09;;;;;;;59.03;27.35;;;6.00;99.90;;;;;;4920904;29;20421;-74
2023/03/03 04:34:36;;;;;;;51.75;25.00;;;6.10;99.90;;;;;;4938044;29;20016;-75
2023/03/03 04:37:03;;;;;;;57.65;26.42;;;6.10;99.90;;;;;;4936662;29;20512;-73
2023/03/03 04:39:28;;;;;;;56.22;27.20;;;6.10;99.90;;;;;;4936577;29;20036;-75
2023/03/03 04:41:56;;;;;;;86.28;34.83;;;6.20;99.90;;;;;;4920921;29;20084;-75
2023/03/03 04:44:22;;;;;;;60.00;29.85;;;6.10;99.90;;;;;;4936299;29;20034;-75
2023/03/03 04:46:48;;;;;;;54.33;28.10;;;6.10;99.90;;;;;;4937842;29;20035;-75
2023/03/03 04:49:14;;;;;;;58.20;25.95;;;6.10;99.90;;;;;;4937862;29;20039;-76
2023/03/03 04:51:41;;;;;;;54.63;25.50;;;6.10;99.90;;;;;;4920572;29;20086;-76
2023/03/03 04:54:08;;;;;;;50.80;26.10;;;6.10;99.90;;;;;;4936413;29;20035;-76
2023/03/03 04:56:34;;;;;;;59.25;29.13;;;6.10;99.90;;;;;;4920482;29;20036;-76
2023/03/03 04:59:00;;;;;;;68.78;29.73;;;6.10;99.90;;;;;;4936130;29;20099;-76
2023/03/03 05:01:27;;;;;;;70.45;29.88;;;6.00;99.90;;;;;;4936095;29;20034;-76
2023/03/03 05:03:52;;;;;;;71.63;30.75;;;6.00;99.90;;;;;;4904266;29;20042;-76
2023/03/03 05:06:20;;;;;;;58.15;27.77;;;6.00;99.90;;;;;;4919985;29;20082;-73
2023/03/03 05:08:46;;;;;;;58.42;26.08;;;6.10;99.90;;;;;;4937257;29;20040;-75
2023/03/03 05:11:12;;;;;;;54.53;27.25;;;6.10;99.90;;;;;;4920168;29;20446;-78
2023/03/03 05:13:38;;;;;;;52.97;24.55;;;6.10;99.90;;;;;;4937110;29;20075;-76
2023/03/03 05:16:05;;;;;;;51.58;23.45;;;6.00;99.90;;;;;;4933601;29;20063;-72
2023/03/03 05:18:30;;;;;;;53.72;25.77;;;6.00;99.90;;;;;;4918030;29;20463;-76
2023/03/03 05:20:56;;;;;;;58.28;27.88;;;6.00;99.90;;;;;;4936995;29;20031;-75
2023/03/03 05:23:22;;;;;;;61.60;30.08;;;6.00;99.90;;;;;;4937205;29;20493;-73
2023/03/03 05:25:49;;;;;;;63.20;31.05;;;6.00;99.90;;;;;;4937072;29;20031;-74
2023/03/03 05:28:16;;;;;;;51.08;26.88;;;6.00;99.90;;;;;;4937005;29;20030;-76
2023/03/03 05:30:42;;;;;;;54.75;28.10;;;6.00;99.90;;;;;;4936884;29;20031;-76
2023/03/03 05:33:12;;;;;;;44.95;23.95;;;6.00;99.90;;;;;;4936965;29;20508;-76
2023/03/03 05:35:38;;;;;;;46.33;24.00;;;6.00;99.90;;;;;;4936924;29;20024;-78
2023/03/03 05:38:04;;;;;;;54.10;25.88;;;6.10;99.90;;;;;;4936653;29;20481;-76
2023/03/03 05:40:30;;;;;;;52.03;25.50;;;6.10;99.90;;;;;;4936896;29;20464;-76
2023/03/03 05:42:56;;;;;;;47.47;22.58;;;6.10;99.90;;;;;;4936675;29;20066;-72
2023/03/03 05:45:23;;;;;;;47.58;22.50;;;6.10;99.90;;;;;;4936702;29;20019;-77
2023/03/03 05:47:52;;;;;;;43.00;21.73;;;6.10;99.90;;;;;;4936963;29;20028;-78
2023/03/03 05:50:20;;;;;;;45.45;22.10;;;6.10;99.90;;;;;;4936877;29;20075;-78
2023/03/03 05:52:52;;;;;;;42.53;22.67;;;6.10;99.90;;;;;;4924632;29;20090;-77
2023/03/03 05:55:18;;;;;;;41.05;20.60;;;6.00;99.90;;;;;;4936448;29;20471;-79
2023/03/03 05:57:44;;;;;;;38.30;20.88;;;6.00;99.90;;;;;;4936385;29;20038;-79
2023/03/03 06:00:12;;;;;;;42.17;20.67;;;6.00;99.90;;;;;;4936153;29;20032;-78
2023/03/03 06:02:41;;;;;;;40.00;20.35;;;6.00;99.90;;;;;;4936566;29;20027;-78
2023/03/03 06:05:07;;;;;;;48.33;22.80;;;6.00;99.90;;;;;;4936449;29;20167;-75
2023/03/03 06:07:34;;;;;;;38.00;20.83;;;6.00;99.90;;;;;;4936631;29;20469;-78
2023/03/03 06:09:59;;;;;;;40.60;23.00;;;6.00;99.90;;;;;;4936355;29;20028;-78
2023/03/03 06:12:26;;;;;;;47.33;25.08;;;6.10;99.90;;;;;;4935003;29;20031;-78
2023/03/03 06:14:52;;;;;;;41.05;23.55;;;6.00;99.90;;;;;;4934998;29;20370;-78
2023/03/03 06:17:18;;;;;;;48.50;24.75;;;6.10;99.90;;;;;;4936479;29;20027;-78
2023/03/03 06:19:43;;;;;;;47.42;26.05;;;6.10;99.90;;;;;;4936064;29;20126;-78
2023/03/03 06:22:09;;;;;;;47.08;25.35;;;6.10;99.90;;;;;;4935979;29;20020;-72
2023/03/03 06:24:35;;;;;;;49.22;25.73;;;6.10;99.90;;;;;;4936135;29;20488;-78
2023/03/03 06:27:01;;;;;;;53.10;28.35;;;6.20;99.90;;;;;;4936121;29;20032;-77
2023/03/03 06:29:27;;;;;;;57.92;26.75;;;6.20;99.90;;;;;;4935851;29;20131;-78
2023/03/03 06:31:53;;;;;;;50.58;25.45;;;6.20;99.90;;;;;;4936129;29;20087;-74
2023/03/03 06:34:19;;;;;;;56.63;27.23;;;6.30;99.90;;;;;;4936169;29;20039;-78
2023/03/03 06:36:45;;;;;;;50.90;27.35;;;6.20;99.90;;;;;;4936088;29;20030;-79
2023/03/03 06:39:11;;;;;;;49.42;28.20;;;6.20;99.90;;;;;;4935825;29;20035;-78
2023/03/03 06:41:37;;;;;;;57.00;28.65;;;6.30;99.90;;;;;;4935959;29;20448;-77
2023/03/03 06:44:03;;;;;;;47.47;27.98;;;6.20;99.90;;;;;;4936115;29;20347;-78
2023/03/03 06:46:29;;;;;;;49.17;26.40;;;6.30;99.90;;;;;;4936066;29;20082;-78
2023/03/03 06:48:55;;;;;;;49.97;26.92;;;6.40;99.90;;;;;;4935774;29;20430;-79
2023/03/03 06:51:29;;;;;;;52.78;29.40;;;6.30;99.90;;;;;;4935961;29;20024;-77
2023/03/03 06:53:57;;;;;;;54.15;28.58;;;6.40;99.90;;;;;;4935749;29;20040;-78
2023/03/03 06:56:26;;;;;;;50.38;26.13;;;6.40;99.90;;;;;;4935761;29;20024;-78
2023/03/03 06:58:57;;;;;;;45.38;24.58;;;6.50;99.90;;;;;;4935358;29;20048;-78
2023/03/03 07:01:23;;;;;;;46.50;26.50;;;6.40;99.90;;;;;;4935902;29;20035;-78
2023/03/03 07:03:48;;;;;;;40.17;21.63;;;6.40;99.90;;;;;;4948422;29;20381;-77
2023/03/03 07:06:23;;;;;;;48.78;24.80;;;6.40;99.90;;;;;;4935617;29;20040;-78
2023/03/03 07:08:51;;;;;;;44.33;24.58;;;6.50;99.90;;;;;;4939236;29;20465;-77
2023/03/03 07:11:20;;;;;;;52.80;26.55;;;6.40;99.90;;;;;;4939588;29;20035;-77
2023/03/03 07:13:50;;;;;;;43.72;24.05;;;6.50;99.90;;;;;;4939156;29;20046;-77
2023/03/03 07:16:25;;;;;;;40.20;23.92;;;6.50;99.90;;;;;;4939501;29;20227;-76
2023/03/03 07:18:56;;;;;;;47.00;25.08;;;6.60;99.90;;;;;;4939400;29;20040;-77
2023/03/03 07:21:29;;;;;;;43.58;24.73;;;6.50;99.90;;;;;;4939578;29;20027;-76
2023/03/03 07:23:56;;;;;;;43.95;25.10;;;6.60;99.90;;;;;;4939195;29;20494;-77
2023/03/03 07:26:29;;;;;;;40.45;22.42;;;6.60;99.90;;;;;;4939258;29;20023;-76
2023/03/03 07:28:59;;;;;;;38.10;22.85;;;6.60;99.90;;;;;;4939258;29;20197;-76
2023/03/03 07:31:35;;;;;;;60.45;28.45;;;6.70;99.90;;;;;;4939246;29;20529;-77
2023/03/03 07:34:03;;;;;;;51.70;28.98;;;6.70;99.90;;;;;;4939408;29;20035;-77
2023/03/03 07:36:36;;;;;;;60.13;32.58;;;6.60;99.90;;;;;;4938804;29;20388;-77
2023/03/03 07:39:34;;;;;;;60.42;31.13;;;6.70;99.90;;;;;;4938610;29;20076;-77
2023/03/03 07:42:20;;;;;;;70.32;35.28;;;6.70;99.90;;;;;;4939386;29;20034;-77
2023/03/03 07:44:54;;;;;;;60.42;32.38;;;6.70;99.90;;;;;;4912552;29;20035;-74
2023/03/03 07:47:37;;;;;;;77.47;40.80;;;6.60;99.90;;;;;;4939090;29;20036;-76
2023/03/03 07:50:17;;;;;;;72.88;36.15;;;6.60;99.90;;;;;;4921772;29;20458;-76
2023/03/03 07:52:57;;;;;;;71.60;39.25;;;6.50;99.90;;;;;;4927769;29;20023;-76
2023/03/03 07:55:30;;;;;;;65.50;33.97;;;6.50;99.90;;;;;;4938662;29;20027;-77
2023/03/03 07:58:14;;;;;;;65.60;35.33;;;6.60;99.90;;;;;;4936770;29;20043;-77
2023/03/03 08:01:11;;;;;;;71.03;36.22;;;6.60;99.90;;;;;;4938755;29;20512;-76
2023/03/03 08:03:37;;;;;;;72.68;37.40;;;6.60;99.90;;;;;;4938528;29;20043;-75
2023/03/03 08:06:28;;;;;;;60.28;34.30;;;6.60;99.90;;;;;;4938352;29;20532;-78
2023/03/03 08:08:58;;;;;;;64.70;35.40;;;6.60;99.90;;;;;;4938743;29;20028;-77
2023/03/03 08:11:24;;;;;;;62.70;34.88;;;6.70;99.90;;;;;;4938542;29;20039;-77
2023/03/03 08:13:50;;;;;;;65.20;32.83;;;6.70;99.90;;;;;;4938516;29;20482;-75
2023/03/03 08:16:16;;;;;;;65.55;32.60;;;6.70;99.90;;;;;;4938388;29;20115;-77
2023/03/03 08:18:46;;;;;;;63.28;31.63;;;6.70;99.90;;;;;;4937746;29;20044;-77
2023/03/03 08:21:16;;;;;;;60.55;31.23;;;6.60;99.90;;;;;;4938290;29;20027;-78
2023/03/03 08:23:42;;;;;;;57.13;29.88;;;6.70;99.90;;;;;;4938139;29;20036;-77
2023/03/03 08:26:08;;;;;;;56.80;31.30;;;6.70;99.90;;;;;;4938354;29;20030;-77
2023/03/03 08:28:34;;;;;;;52.70;32.38;;;6.70;99.90;;;;;;4938180;29;20027;-76
2023/03/03 08:31:00;;;;;;;64.55;33.63;;;6.70;99.90;;;;;;4938102;29;20515;-78
2023/03/03 08:33:26;;;;;;;58.40;32.17;;;6.70;99.90;;;;;;4938222;29;20512;-77
2023/03/03 08:35:51;;;;;;;55.47;29.85;;;6.70;99.90;;;;;;4937862;29;20394;-77
2023/03/03 08:38:19;;;;;;;60.20;32.30;;;6.80;99.90;;;;;;4937999;29;20042;-75
2023/03/03 08:40:46;;;;;;;55.33;32.85;;;6.80;99.90;;;;;;4937831;29;20099;-77
2023/03/03 08:43:16;;;;;;;61.53;34.88;;;6.80;99.90;;;;;;4937959;29;20023;-76
2023/03/03 08:45:49;;;;;;;64.80;33.47;;;6.80;99.90;;;;;;4937952;29;20090;-76
2023/03/03 08:48:16;;;;;;;65.63;33.97;;;6.80;99.90;;;;;;4937704;29;20071;-77
2023/03/03 08:50:43;;;;;;;65.60;37.20;;;6.90;99.90;;;;;;4937793;29;20027;-76
2023/03/03 08:53:10;;;;;;;73.05;40.05;;;6.80;99.90;;;;;;4937752;29;20436;-77
2023/03/03 08:55:36;;;;;;;63.30;35.03;;;6.80;99.90;;;;;;4937739;29;20027;-76
2023/03/03 08:58:02;;;;;;;65.57;34.60;;;6.90;99.90;;;;;;4937618;29;20470;-76
2023/03/03 09:00:28;;;;;;;60.88;36.13;;;6.90;99.90;;;;;;4937586;29;20038;-77
2023/03/03 09:02:54;;;;;;;67.20;36.50;;;6.90;99.90;;;;;;4937423;29;20110;-77
2023/03/03 09:05:21;;;;;;;57.63;33.75;;;7.00;99.90;;;;;;4942288;28;20157;-78
2023/03/03 09:07:48;;;;;;;57.10;31.85;;;6.90;99.90;;;;;;4940347;29;20032;-78
2023/03/03 09:10:17;;;;;;;65.10;35.05;;;6.90;99.90;;;;;;4925219;29;20032;-78
2023/03/03 09:12:48;;;;;;;55.67;32.00;;;6.80;99.90;;;;;;4937116;29;20039;-76
2023/03/03 09:15:19;;;;;;;52.33;33.72;;;6.90;99.90;;;;;;4937224;29;20095;-77
2023/03/03 09:17:45;;;;;;;57.33;31.67;;;6.80;99.90;;;;;;4937489;29;20042;-77
2023/03/03 09:20:34;;;;;;;56.03;30.27;;;6.90;99.90;;;;;;4937320;29;20513;-76
2023/03/03 09:23:32;;;;;;;57.95;29.40;;;7.00;99.90;;;;;;4936992;29;20020;-77
2023/03/03 09:26:23;;;;;;;53.63;31.33;;;7.10;99.90;;;;;;4937128;29;20112;-76
2023/03/03 09:28:49;;;;;;;55.33;32.38;;;7.10;99.90;;;;;;4937119;29;20470;-77
2023/03/03 09:31:25;;;;;;;55.83;31.95;;;7.00;99.90;;;;;;4936218;29;20095;-78
2023/03/03 09:33:53;;;;;;;63.92;35.03;;;6.90;99.90;;;;;;4937142;29;20023;-77
2023/03/03 09:36:34;;;;;;;68.50;36.22;;;7.00;99.90;;;;;;4936873;29;20482;-77
2023/03/03 09:39:09;;;;;;;54.08;33.22;;;7.00;99.90;;;;;;4936769;29;20098;-76
2023/03/03 09:41:35;;;;;;;66.80;37.58;;;7.00;99.90;;;;;;4936888;29;20028;-77
2023/03/03 09:44:25;;;;;;;65.10;37.20;;;7.10;99.90;;;;;;4936906;29;20046;-78
2023/03/03 09:47:09;;;;;;;69.50;36.72;;;7.10;99.90;;;;;;4936899;29;20035;-77
2023/03/03 09:49:43;;;;;;;60.13;34.17;;;7.10;99.90;;;;;;4926553;29;20024;-77
2023/03/03 09:52:22;;;;;;;61.85;32.55;;;7.10;99.90;;;;;;4936712;29;20526;-78
2023/03/03 09:55:08;;;;;;;65.25;32.97;;;7.10;99.90;;;;;;4936683;29;20035;-77
2023/03/03 09:57:57;;;;;;;59.53;32.60;;;7.10;99.90;;;;;;4936764;29;20095;-77
2023/03/03 10:00:41;;;;;;;64.78;34.80;;;7.00;99.90;;;;;;4913818;29;20051;-78
2023/03/03 10:03:52;;;;;;;61.45;33.65;;;7.00;99.90;;;;;;4936515;29;20039;-77
2023/03/03 10:06:40;;;;;;;67.28;34.08;;;7.10;99.90;;;;;;4936422;29;20095;-77
2023/03/03 10:09:39;;;;;;;69.63;37.50;;;7.10;99.90;;;;;;4926442;29;20036;-77
2023/03/03 10:12:24;;;;;;;76.53;45.13;;;7.10;99.90;;;;;;4919782;29;20059;-78
2023/03/03 10:15:01;;;;;;;84.50;42.42;;;7.20;99.90;;;;;;4936253;29;20036;-78
2023/03/03 10:17:51;;;;;;;65.82;36.53;;;7.20;99.90;;;;;;4936339;29;20038;-76
2023/03/03 10:20:29;;;;;;;58.20;32.97;;;7.20;99.90;;;;;;4925303;29;20058;-78
2023/03/03 10:23:11;;;;;;;59.75;33.42;;;7.10;99.90;;;;;;4935996;29;20115;-77
2023/03/03 10:25:41;;;;;;;57.03;30.13;;;7.10;99.90;;;;;;4936594;29;20036;-77
2023/03/03 10:28:39;;;;;;;63.40;35.38;;;7.20;99.90;;;;;;4936099;29;20036;-77
2023/03/03 10:31:08;;;;;;;60.53;33.72;;;7.20;99.90;;;;;;4935854;29;20024;-78
2023/03/03 10:33:55;;;;;;;60.25;34.20;;;7.20;99.90;;;;;;4936202;29;20421;-78
2023/03/03 10:36:54;;;;;;;58.17;31.40;;;7.20;99.90;;;;;;4935889;29;20030;-74
2023/03/03 10:39:25;;;;;;;60.42;34.33;;;7.30;99.90;;;;;;4935855;29;20553;-77
2023/03/03 10:42:15;;;;;;;66.45;37.00;;;7.30;99.90;;;;;;4935703;29;20382;-78
2023/03/03 10:44:59;;;;;;;72.38;38.75;;;7.30;99.90;;;;;;4935880;29;20087;-76
2023/03/03 10:47:42;;;;;;;70.70;34.30;;;7.30;99.90;;;;;;4935787;29;20028;-77
2023/03/03 10:50:20;;;;;;;75.55;38.30;;;7.20;99.90;;;;;;4935921;29;20493;-79
2023/03/03 10:52:51;;;;;;;64.45;35.25;;;7.20;99.90;;;;;;4923710;29;20034;-78
2023/03/03 10:55:29;;;;;;;72.60;35.33;;;7.20;99.90;;;;;;4935817;29;20031;-78
2023/03/03 10:58:11;;;;;;;71.13;38.03;;;7.20;99.90;;;;;;4935871;29;20087;-76
2023/03/03 11:01:05;;;;;;;71.32;37.60;;;7.30;99.90;;;;;;4936026;29;20031;-76
2023/03/03 11:03:31;;;;;;;;;;;7.40;99.90;;;;;;4948447;29;20396;-77
2023/03/03 11:06:21;;;;;;;64.00;34.63;;;7.30;99.90;;;;;;4935989;29;19923;-76
2023/03/03 11:09:25;;;;;;;69.95;39.70;;;7.30;99.90;;;;;;4935417;29;20413;-77
2023/03/03 11:12:19;;;;;;;63.28;37.13;;;7.30;99.90;;;;;;4935899;29;20034;-76
2023/03/03 11:14:49;;;;;;;58.63;33.20;;;7.30;99.90;;;;;;4926035;29;20036;-76
2023/03/03 11:17:28;;;;;;;66.72;36.78;;;7.30;99.90;;;;;;4935975;29;20078;-78
2023/03/03 11:20:00;;;;;;;66.53;39.03;;;7.30;99.90;;;;;;4935792;29;20118;-75
2023/03/03 11:22:53;;;;;;;68.25;37.15;;;7.40;99.90;;;;;;4935654;29;20036;-78
2023/03/03 11:25:19;;;;;;;58.65;35.15;;;7.20;99.90;;;;;;4935611;29;20059;-77
2023/03/03 11:28:03;;;;;;;62.88;36.10;;;7.30;99.90;;;;;;4934386;29;20032;-78
2023/03/03 11:30:50;;;;;;;63.47;35.88;;;7.20;99.90;;;;;;4935538;29;20106;-78
2023/03/03 11:33:45;;;;;;;73.95;35.92;;;7.30;99.90;;;;;;4924167;29;20031;-77
2023/03/03 11:36:20;;;;;;;60.13;34.58;;;7.30;99.90;;;;;;4935383;29;20379;-75
2023/03/03 11:38:54;;;;;;;59.22;34.45;;;7.30;99.90;;;;;;4935462;29;20084;-77
2023/03/03 11:41:26;;;;;;;55.10;33.75;;;7.30;99.90;;;;;;4923569;29;20119;-77
2023/03/03 11:44:18;;;;;;;67.90;37.17;;;7.30;99.90;;;;;;4935407;29;20118;-77
2023/03/03 11:47:05;;;;;;;56.83;32.08;;;7.40;99.90;;;;;;4922574;29;20055;-76
2023/03/03 11:49:45;;;;;;;57.40;30.83;;;7.40;99.90;;;;;;4935546;29;20398;-77
2023/03/03 11:52:17;;;;;;;61.95;32.17;;;7.40;99.90;;;;;;4935994;29;20030;-77
2023/03/03 11:55:01;;;;;;;60.70;34.40;;;7.40;99.90;;;;;;4937326;29;20118;-77
2023/03/03 11:57:45;;;;;;;67.57;38.75;;;7.40;99.90;;;;;;4938928;29;20060;-76
2023/03/03 12:00:14;;;;;;;68.28;35.95;;;7.40;99.90;;;;;;4938817;29;20141;-77
2023/03/03 12:02:43;;;;;;;71.63;37.55;;;7.40;99.90;;;;;;4939061;29;20046;-76
2023/03/03 12:05:41;;;;;;;70.97;38.08;;;7.40;99.90;;;;;;4938699;29;20015;-77
2023/03/03 12:08:13;;;;;;;65.07;36.38;;;7.40;99.90;;;;;;4938853;29;20044;-78
2023/03/03 12:10:51;;;;;;;62.13;37.45;;;7.50;99.90;;;;;;4938787;29;20114;-77
2023/03/03 12:13:47;;;;;;;58.80;33.33;;;7.40;99.90;;;;;;4938823;29;20063;-76
2023/03/03 12:16:21;;;;;;;61.28;34.33;;;7.40;99.90;;;;;;4938504;29;20032;-78
2023/03/03 12:19:00;;;;;;;67.38;35.42;;;7.40;99.90;;;;;;4938584;29;20043;-77
2023/03/03 12:22:03;;;;;;;67.22;38.65;;;7.40;99.90;;;;;;4938262;29;20031;-77
2023/03/03 12:25:00;;;;;;;69.18;40.78;;;7.60;99.90;;;;;;4938199;29;20466;-78
2023/03/03 12:27:52;;;;;;;57.47;34.35;;;7.70;99.90;;;;;;4938303;29;20414;-74
2023/03/03 12:30:39;;;;;;;59.63;35.88;;;7.50;99.90;;;;;;4938285;29;20055;-77
2023/03/03 12:33:09;;;;;;;58.03;32.53;;;7.50;99.90;;;;;;4938415;29;20039;-77
2023/03/03 12:35:50;;;;;;;62.40;36.58;;;7.50;99.90;;;;;;4938261;29;20048;-74
2023/03/03 12:38:34;;;;;;;61.55;33.40;;;7.50;99.90;;;;;;4927325;29;20047;-73
2023/03/03 12:41:09;;;;;;;59.80;36.30;;;7.40;99.90;;;;;;4938021;29;20034;-77
2023/03/03 12:43:47;;;;;;;68.65;38.60;;;7.40;99.90;;;;;;4937946;29;20110;-76
2023/03/03 12:46:28;;;;;;;69.95;40.08;;;7.50;99.90;;;;;;4929477;29;20088;-76
2023/03/03 12:48:54;;;;;;;56.50;34.65;;;7.50;99.90;;;;;;4920947;29;20119;-77
2023/03/03 12:51:58;;;;;;;60.47;35.20;;;7.50;99.90;;;;;;4918681;29;20129;-73
2023/03/03 12:54:23;;;;;;;;;;;7.50;99.90;;;;;;4927268;29;20107;-77
2023/03/03 12:57:13;;;;;;;58.85;35.67;;;7.60;99.90;;;;;;4921088;29;19955;-77
2023/03/03 12:59:47;;;;;;;61.63;33.22;;;7.50;99.90;;;;;;4911899;29;20052;-78
2023/03/03 13:02:18;;;;;;;59.20;34.30;;;7.50;99.90;;;;;;4935836;29;20028;-76
2023/03/03 13:05:09;;;;;;;69.88;36.65;;;7.60;99.90;;;;;;4922972;29;20039;-75